Time;durP1;ratioP1;P1;durP2;ratioP2;P2;SDS_P1;SDS_P2;PMS_P1;PMS_P2;Temp;Humidity;BMP_temperature;BMP_pressure;BME280_temperature;BME280_humidity;BME280_pressure;Samples;Min_cycle;Max_cycle;Signal;HPM_P1;HPM_P2
2022/03/25 00:02:26;;;;;;;35.30;23.50;;;5.10;99.90;;;;;;5016558;28;20474;-86
2022/03/25 00:05:13;;;;;;;34.00;22.30;;;5.00;99.90;;;;;;5015067;28;20437;-88
2022/03/25 00:07:59;;;;;;;38.07;23.73;;;5.00;99.90;;;;;;5011748;28;20503;-86
2022/03/25 00:10:45;;;;;;;37.50;24.00;;;4.80;99.90;;;;;;5012904;28;20580;-87
2022/03/25 00:13:30;;;;;;;33.43;22.77;;;5.00;99.90;;;;;;5003885;28;21175;-87
2022/03/25 00:16:16;;;;;;;35.17;23.60;;;5.20;99.90;;;;;;5022215;28;20561;-87
2022/03/25 00:19:03;;;;;;;35.80;23.90;;;5.30;99.90;;;;;;5019910;28;20496;-86
2022/03/25 00:21:50;;;;;;;38.30;23.33;;;4.90;99.90;;;;;;5009800;28;20981;-86
2022/03/25 00:24:35;;;;;;;35.70;23.37;;;4.80;99.90;;;;;;5008741;28;20439;-87
2022/03/25 00:27:22;;;;;;;37.50;23.77;;;4.80;99.90;;;;;;5014000;28;20434;-87
2022/03/25 00:30:09;;;;;;;39.00;24.43;;;4.60;99.90;;;;;;5016625;28;20411;-86
2022/03/25 00:32:55;;;;;;;33.50;21.93;;;4.60;99.90;;;;;;5010881;28;23175;-87
2022/03/25 00:35:42;;;;;;;35.63;22.90;;;4.60;99.90;;;;;;5017469;28;20937;-87
2022/03/25 00:38:29;;;;;;;37.10;23.43;;;4.50;99.90;;;;;;5010971;28;20510;-87
2022/03/25 00:41:16;;;;;;;44.67;24.97;;;4.40;99.90;;;;;;5020556;28;20873;-86
2022/03/25 00:44:02;;;;;;;40.20;22.70;;;4.50;99.90;;;;;;5010908;28;20473;-86
2022/03/25 00:46:48;;;;;;;37.00;22.83;;;4.70;99.90;;;;;;5013197;28;20415;-86
2022/03/25 00:49:34;;;;;;;32.97;22.70;;;4.60;99.90;;;;;;5012834;28;21064;-87
2022/03/25 00:52:19;;;;;;;41.53;25.60;;;4.60;99.90;;;;;;5012057;28;20448;-87
2022/03/25 00:55:08;;;;;;;37.40;23.40;;;4.50;99.90;;;;;;5010809;28;20502;-87
2022/03/25 00:57:54;;;;;;;37.23;23.07;;;4.40;99.90;;;;;;5005475;28;20424;-87
2022/03/25 01:00:40;;;;;;;35.47;21.63;;;4.40;99.90;;;;;;5013052;28;20464;-86
2022/03/25 01:03:26;;;;;;;34.60;21.97;;;4.40;99.90;;;;;;5008321;28;20470;-87
2022/03/25 01:06:11;;;;;;;35.17;22.27;;;4.40;99.90;;;;;;5011529;28;21042;-87
2022/03/25 01:08:57;;;;;;;37.83;22.47;;;4.60;99.90;;;;;;5014013;28;20962;-87
2022/03/25 01:11:44;;;;;;;35.53;22.03;;;4.50;99.90;;;;;;5013059;28;20476;-87
2022/03/25 01:14:30;;;;;;;38.60;22.50;;;4.40;99.90;;;;;;5012736;28;20803;-86
2022/03/25 01:17:16;;;;;;;32.10;20.77;;;4.50;99.90;;;;;;5012287;28;20828;-87
2022/03/25 01:20:02;;;;;;;29.43;21.50;;;4.70;99.90;;;;;;5009174;28;20910;-87
2022/03/25 01:22:49;;;;;;;38.30;23.57;;;4.70;99.90;;;;;;5006060;28;20462;-87
2022/03/25 01:25:36;;;;;;;35.07;21.87;;;4.60;99.90;;;;;;5013538;28;20476;-87
2022/03/25 01:28:23;;;;;;;34.40;22.17;;;4.50;99.90;;;;;;5013840;28;20585;-87
2022/03/25 01:31:10;;;;;;;31.73;21.97;;;4.30;99.90;;;;;;5013254;28;20547;-87
2022/03/25 01:33:56;;;;;;;32.73;21.80;;;4.20;99.90;;;;;;5007307;28;20488;-87
2022/03/25 01:36:42;;;;;;;40.73;23.10;;;4.10;99.90;;;;;;5008524;28;20457;-87
2022/03/25 01:39:28;;;;;;;38.53;24.17;;;4.00;99.90;;;;;;5026454;28;20547;-87
2022/03/25 01:42:30;;;;;;;41.20;23.23;;;4.00;99.90;;;;;;5008509;28;20695;-87
2022/03/25 01:45:30;;;;;;;33.90;22.57;;;3.90;99.90;;;;;;5013997;28;20496;-86
2022/03/25 01:48:17;;;;;;;36.20;22.70;;;3.90;99.90;;;;;;5017286;28;20424;-86
2022/03/25 01:51:03;;;;;;;38.90;23.85;;;3.80;99.90;;;;;;5012759;28;20515;-87
2022/03/25 01:53:49;;;;;;;40.65;24.65;;;3.80;99.90;;;;;;5009312;28;20213;-87
2022/03/25 01:56:35;;;;;;;34.25;23.02;;;3.90;99.90;;;;;;5010954;28;20192;-87
2022/03/25 01:59:22;;;;;;;39.07;23.80;;;3.80;99.90;;;;;;5009499;28;20194;-87
2022/03/25 02:02:10;;;;;;;36.03;24.40;;;3.80;99.90;;;;;;5011405;28;20885;-87
2022/03/25 02:04:56;;;;;;;38.50;24.83;;;3.80;99.90;;;;;;5011134;28;20433;-89
2022/03/25 02:07:42;;;;;;;41.07;23.43;;;3.90;99.90;;;;;;5013010;28;20789;-87
2022/03/25 02:10:27;;;;;;;34.83;22.63;;;3.90;99.90;;;;;;5012986;28;20917;-87
2022/03/25 02:13:13;;;;;;;34.90;23.03;;;4.10;99.90;;;;;;5008200;28;20515;-87
2022/03/25 02:16:00;;;;;;;32.10;20.93;;;4.10;99.90;;;;;;5008020;28;20959;-87
2022/03/25 02:18:48;;;;;;;34.07;24.00;;;4.00;99.90;;;;;;5007728;28;20524;-87
2022/03/25 02:21:36;;;;;;;37.53;24.30;;;3.80;99.90;;;;;;5009236;28;20481;-86
2022/03/25 02:24:22;;;;;;;31.83;20.77;;;3.80;99.90;;;;;;5009902;28;20465;-86
2022/03/25 02:27:09;;;;;;;32.30;22.30;;;3.90;99.90;;;;;;5014956;28;20940;-86
2022/03/25 02:29:55;;;;;;;38.13;21.83;;;4.10;99.90;;;;;;5007861;28;20492;-86
2022/03/25 02:32:41;;;;;;;33.87;22.87;;;4.00;99.90;;;;;;5007350;28;20532;-86
2022/03/25 02:35:37;;;;;;;35.93;22.40;;;4.10;99.90;;;;;;5012418;28;20483;-89
2022/03/25 02:38:25;;;;;;;34.50;22.80;;;4.20;99.90;;;;;;5010011;28;20809;-87
2022/03/25 02:41:11;;;;;;;33.03;21.60;;;4.00;99.90;;;;;;5009593;28;20469;-88
2022/03/25 02:43:57;;;;;;;40.23;24.53;;;3.90;99.90;;;;;;5008564;28;20489;-86
2022/03/25 02:46:43;;;;;;;41.40;24.20;;;3.60;99.90;;;;;;5010207;28;20415;-86
2022/03/25 02:49:28;;;;;;;39.73;24.03;;;3.50;99.90;;;;;;5011811;28;20443;-87
2022/03/25 02:52:14;;;;;;;45.70;24.90;;;3.50;99.90;;;;;;5033870;23;20498;-73
2022/03/25 02:55:01;;;;;;;44.80;25.77;;;3.50;99.90;;;;;;5032803;28;20483;-73
2022/03/25 02:57:47;;;;;;;37.83;24.83;;;3.40;99.90;;;;;;5032802;28;20411;-75
2022/03/25 03:00:34;;;;;;;35.70;23.17;;;3.40;99.90;;;;;;5031808;28;20526;-73
2022/03/25 03:03:21;;;;;;;44.23;26.10;;;3.30;99.90;;;;;;5032988;28;20820;-73
2022/03/25 03:06:07;;;;;;;38.40;24.37;;;3.30;99.90;;;;;;5032328;28;20801;-73
2022/03/25 03:08:53;;;;;;;39.33;23.33;;;3.50;99.90;;;;;;5035432;28;20440;-73
2022/03/25 03:11:40;;;;;;;36.90;24.40;;;3.70;99.90;;;;;;5022738;28;20526;-73
2022/03/25 03:14:26;;;;;;;43.17;23.40;;;3.90;99.90;;;;;;5032129;28;20419;-73
2022/03/25 03:17:13;;;;;;;35.23;22.67;;;4.00;99.90;;;;;;5032375;28;20433;-74
2022/03/25 03:20:00;;;;;;;39.13;24.13;;;4.10;99.90;;;;;;5033018;28;21119;-74
2022/03/25 03:22:46;;;;;;;38.87;23.80;;;3.80;99.90;;;;;;5031701;28;20433;-73
2022/03/25 03:25:32;;;;;;;33.53;20.90;;;3.80;99.90;;;;;;5029719;28;20449;-73
2022/03/25 03:28:19;;;;;;;35.83;22.77;;;3.70;99.90;;;;;;5042196;28;20526;-73
2022/03/25 03:31:05;;;;;;;34.50;22.57;;;3.60;99.90;;;;;;5035004;28;20537;-74
2022/03/25 03:33:51;;;;;;;40.83;24.50;;;3.50;99.90;;;;;;5036305;28;20595;-74
2022/03/25 03:36:36;;;;;;;35.07;22.80;;;3.40;99.90;;;;;;5036151;28;20446;-73
2022/03/25 03:39:22;;;;;;;40.42;23.80;;;3.40;99.90;;;;;;5035466;28;20468;-73
2022/03/25 03:42:08;;;;;;;36.87;23.43;;;3.30;99.90;;;;;;5035060;28;20205;-73
2022/03/25 03:44:55;;;;;;;36.83;24.50;;;3.20;99.90;;;;;;5036191;28;20558;-74
2022/03/25 03:47:42;;;;;;;42.13;24.47;;;3.10;99.90;;;;;;5035984;28;20570;-73
2022/03/25 03:50:28;;;;;;;42.27;27.03;;;3.00;99.90;;;;;;5032541;28;20446;-73
2022/03/25 03:53:14;;;;;;;42.93;24.57;;;3.10;99.90;;;;;;5035716;28;20438;-74
2022/03/25 03:55:59;;;;;;;39.20;23.53;;;3.10;99.90;;;;;;5037144;28;20447;-73
2022/03/25 03:58:45;;;;;;;44.80;26.70;;;3.30;99.90;;;;;;5033119;28;20457;-73
2022/03/25 04:01:33;;;;;;;38.43;25.47;;;3.30;99.90;;;;;;5032615;28;20466;-73
2022/03/25 04:04:18;;;;;;;42.70;24.87;;;3.20;99.90;;;;;;5037668;28;20799;-74
2022/03/25 04:07:04;;;;;;;38.80;24.23;;;3.00;99.90;;;;;;5035176;28;20452;-75
2022/03/25 04:09:50;;;;;;;52.42;25.40;;;2.90;99.90;;;;;;5035238;28;20467;-74
2022/03/25 04:12:36;;;;;;;44.87;26.93;;;2.90;99.90;;;;;;5029369;28;20280;-73
2022/03/25 04:15:22;;;;;;;48.70;25.70;;;3.00;99.90;;;;;;5035979;28;20808;-73
2022/03/25 04:18:09;;;;;;;40.17;22.30;;;3.10;99.90;;;;;;5036326;28;20684;-73
2022/03/25 04:20:55;;;;;;;36.67;24.17;;;3.30;99.90;;;;;;5030934;28;20510;-74
2022/03/25 04:23:40;;;;;;;50.63;23.73;;;3.50;99.90;;;;;;5036098;28;20467;-73
2022/03/25 04:26:26;;;;;;;41.10;24.97;;;3.50;99.90;;;;;;5035663;28;20442;-73
2022/03/25 04:29:12;;;;;;;54.73;24.67;;;3.40;99.90;;;;;;5037920;28;20444;-73
2022/03/25 04:31:57;;;;;;;40.90;25.73;;;3.30;99.90;;;;;;5033240;28;20456;-73
2022/03/25 04:34:45;;;;;;;49.47;24.53;;;3.20;99.90;;;;;;5034054;28;20398;-73
2022/03/25 04:37:30;;;;;;;38.17;24.70;;;3.20;99.90;;;;;;5033520;28;20461;-73
2022/03/25 04:40:18;;;;;;;37.33;24.17;;;3.10;99.90;;;;;;5031712;28;20231;-73
2022/03/25 04:43:04;;;;;;;42.43;23.47;;;3.00;99.90;;;;;;5036662;28;20418;-74
2022/03/25 04:45:50;;;;;;;36.63;24.73;;;2.90;99.90;;;;;;5035208;28;20426;-73
2022/03/25 04:48:37;;;;;;;39.70;24.40;;;2.90;99.90;;;;;;5030231;28;20971;-74
2022/03/25 04:51:24;;;;;;;37.30;22.30;;;2.80;99.90;;;;;;5033287;28;20476;-73
2022/03/25 04:54:10;;;;;;;40.23;25.33;;;2.80;99.90;;;;;;5034697;28;20435;-75
2022/03/25 04:56:55;;;;;;;40.93;24.30;;;2.70;99.90;;;;;;5030483;28;20466;-73
2022/03/25 04:59:41;;;;;;;39.70;24.47;;;2.70;99.90;;;;;;5028776;28;20530;-74
2022/03/25 05:02:27;;;;;;;40.07;25.40;;;2.60;99.90;;;;;;5035724;28;20451;-73
2022/03/25 05:05:13;;;;;;;44.03;27.40;;;2.50;99.90;;;;;;5033963;28;20822;-74
2022/03/25 05:08:00;;;;;;;36.22;24.35;;;2.60;99.90;;;;;;5034705;28;20192;-73
2022/03/25 05:10:46;;;;;;;40.57;25.63;;;2.50;99.90;;;;;;5033223;28;20303;-73
2022/03/25 05:13:31;;;;;;;38.28;23.85;;;2.50;99.90;;;;;;5035161;28;20407;-73
2022/03/25 05:16:17;;;;;;;42.35;25.77;;;2.60;99.90;;;;;;5039149;28;20214;-73
2022/03/25 05:19:03;;;;;;;38.43;23.43;;;2.80;99.90;;;;;;5033170;28;20205;-73
2022/03/25 05:21:49;;;;;;;45.63;24.80;;;3.00;99.90;;;;;;5032104;28;21121;-73
2022/03/25 05:24:37;;;;;;;39.30;25.85;;;3.00;99.90;;;;;;5036014;28;20213;-73
2022/03/25 05:27:22;;;;;;;37.57;24.17;;;2.80;99.90;;;;;;5039772;28;20209;-73
2022/03/25 05:30:09;;;;;;;38.10;25.35;;;2.70;99.90;;;;;;5029044;28;20521;-74
2022/03/25 05:32:55;;;;;;;51.60;25.97;;;2.70;99.90;;;;;;5035624;28;20213;-73
2022/03/25 05:35:41;;;;;;;37.43;24.97;;;2.60;99.90;;;;;;5031781;28;20941;-74
2022/03/25 05:38:26;;;;;;;44.97;26.50;;;2.50;99.90;;;;;;5036036;28;20414;-75
2022/03/25 05:41:14;;;;;;;39.87;24.47;;;2.60;99.90;;;;;;5033140;28;20461;-74
2022/03/25 05:44:00;;;;;;;40.70;25.05;;;2.70;99.90;;;;;;5035265;28;20566;-74
2022/03/25 05:46:46;;;;;;;40.90;25.27;;;2.80;99.90;;;;;;5034471;28;20217;-73
2022/03/25 05:49:32;;;;;;;45.90;24.87;;;3.00;99.90;;;;;;5030648;28;20455;-73
2022/03/25 05:52:17;;;;;;;53.38;28.30;;;3.10;99.90;;;;;;5034609;28;20806;-72
2022/03/25 05:55:04;;;;;;;46.00;27.00;;;3.30;99.90;;;;;;5032636;28;20594;-73
2022/03/25 05:57:51;;;;;;;47.13;24.30;;;3.50;99.90;;;;;;5030097;28;20517;-73
2022/03/25 06:00:37;;;;;;;39.30;24.83;;;3.60;99.90;;;;;;5028797;28;20842;-73
2022/03/25 06:03:23;;;;;;;46.43;25.30;;;3.60;99.90;;;;;;5034041;28;20444;-73
2022/03/25 06:06:09;;;;;;;63.07;25.63;;;3.40;99.90;;;;;;5033523;28;20806;-73
2022/03/25 06:08:55;;;;;;;40.70;25.77;;;3.30;99.90;;;;;;5027931;28;20433;-73
2022/03/25 06:11:41;;;;;;;41.87;26.23;;;3.30;99.90;;;;;;5034052;28;20510;-73
2022/03/25 06:14:28;;;;;;;43.57;23.87;;;3.50;99.90;;;;;;5032828;28;20415;-72
2022/03/25 06:17:13;;;;;;;46.63;26.70;;;3.50;99.90;;;;;;5039137;28;20448;-73
2022/03/25 06:19:59;;;;;;;37.17;24.37;;;3.60;99.90;;;;;;5025224;28;20487;-72
2022/03/25 06:22:45;;;;;;;47.03;26.77;;;3.90;99.90;;;;;;5029989;28;21039;-72
2022/03/25 06:25:31;;;;;;;41.00;23.87;;;4.20;99.90;;;;;;5034287;28;20459;-72
2022/03/25 06:28:16;;;;;;;42.67;25.80;;;4.20;99.90;;;;;;5028104;28;21076;-73
2022/03/25 06:31:04;;;;;;;43.23;25.73;;;4.20;99.90;;;;;;5034144;28;20571;-73
2022/03/25 06:33:49;;;;;;;45.67;26.67;;;4.30;99.90;;;;;;5032114;28;20423;-73
2022/03/25 06:36:35;;;;;;;40.87;25.87;;;4.40;99.90;;;;;;5035382;28;20431;-73
2022/03/25 06:39:21;;;;;;;39.73;26.43;;;4.50;99.90;;;;;;5028481;28;20448;-73
2022/03/25 06:42:07;;;;;;;34.97;23.93;;;4.70;99.90;;;;;;5034063;28;20769;-73
2022/03/25 06:44:53;;;;;;;41.10;24.40;;;4.70;99.90;;;;;;5030951;28;20472;-74
2022/03/25 06:47:40;;;;;;;43.97;25.20;;;4.90;99.90;;;;;;5028403;28;20531;-74
2022/03/25 06:50:26;;;;;;;43.20;23.30;;;5.00;99.90;;;;;;5031404;28;20507;-74
2022/03/25 06:53:13;;;;;;;46.00;25.60;;;5.20;99.90;;;;;;5031204;28;20542;-74
2022/03/25 06:58:30;;;;;;;47.83;24.03;;;5.60;99.90;;;;;;5004327;28;20461;-71
2022/03/25 07:01:17;;;;;;;42.40;26.00;;;5.60;99.90;;;;;;5008199;28;20951;-71
2022/03/25 07:04:05;;;;;;;42.00;25.20;;;5.60;99.90;;;;;;5019624;28;20903;-71
2022/03/25 07:06:52;;;;;;;41.53;25.07;;;5.60;99.90;;;;;;5014666;28;20458;-71
2022/03/25 07:09:39;;;;;;;43.70;25.23;;;5.60;99.90;;;;;;5016220;28;20457;-71
2022/03/25 07:12:25;;;;;;;40.23;26.53;;;5.70;99.90;;;;;;5016225;28;20532;-72
2022/03/25 07:15:12;;;;;;;41.10;26.97;;;5.90;99.90;;;;;;5012601;28;20437;-71
2022/03/25 07:17:58;;;;;;;42.93;26.53;;;6.00;99.90;;;;;;5011060;28;21142;-71
2022/03/25 07:20:45;;;;;;;46.63;25.40;;;6.10;99.90;;;;;;5012849;28;20921;-71
2022/03/25 07:23:32;;;;;;;45.67;24.67;;;6.30;99.90;;;;;;5011388;28;20411;-71
2022/03/25 07:26:18;;;;;;;45.50;25.67;;;6.40;99.90;;;;;;5013770;28;20523;-71
2022/03/25 07:29:04;;;;;;;39.80;25.40;;;6.60;99.90;;;;;;5014780;28;20516;-71
2022/03/25 07:31:50;;;;;;;43.60;25.97;;;6.80;99.90;;;;;;5009886;28;20419;-71
2022/03/25 07:34:37;;;;;;;40.10;25.67;;;6.90;99.90;;;;;;5011931;28;20951;-71
2022/03/25 07:37:24;;;;;;;41.13;25.43;;;7.10;99.90;;;;;;5014792;28;20592;-72
2022/03/25 07:40:12;;;;;;;48.17;29.00;;;7.30;99.90;;;;;;5015151;28;21006;-71
2022/03/25 07:42:59;;;;;;;47.50;27.23;;;7.50;99.90;;;;;;5009953;28;20408;-71
2022/03/25 07:45:45;;;;;;;44.60;26.10;;;7.70;99.90;;;;;;5009251;28;20988;-71
2022/03/25 07:48:31;;;;;;;43.63;27.03;;;7.90;99.90;;;;;;5013366;28;20770;-71
2022/03/25 07:51:16;;;;;;;39.57;25.63;;;8.10;99.90;;;;;;5016671;28;20395;-71
2022/03/25 07:54:04;;;;;;;46.20;27.07;;;8.30;99.90;;;;;;5014325;28;20388;-72
2022/03/25 07:56:49;;;;;;;42.63;27.03;;;8.50;99.90;;;;;;5013090;28;20532;-71
2022/03/25 07:59:36;;;;;;;47.40;29.37;;;8.60;99.90;;;;;;5006695;28;20449;-71
2022/03/25 08:02:21;;;;;;;46.87;28.30;;;8.80;99.90;;;;;;5011415;28;20425;-71
2022/03/25 08:05:10;;;;;;;47.47;29.50;;;9.00;99.90;;;;;;5011641;28;20801;-71
2022/03/25 08:07:56;;;;;;;45.40;27.47;;;9.20;99.90;;;;;;5011113;28;20474;-72
2022/03/25 08:10:43;;;;;;;42.50;27.17;;;9.30;99.90;;;;;;5013869;28;20411;-72
2022/03/25 08:13:28;;;;;;;43.90;27.00;;;9.50;99.90;;;;;;5009158;28;20428;-71
2022/03/25 08:16:16;;;;;;;44.80;27.30;;;9.70;99.60;;;;;;5012242;28;20402;-71
2022/03/25 08:19:02;;;;;;;53.13;28.83;;;9.90;98.70;;;;;;5003381;28;20989;-71
2022/03/25 08:21:47;;;;;;;51.27;29.40;;;10.10;98.00;;;;;;5004181;28;20418;-72
2022/03/25 08:27:50;;;;;;;49.13;29.33;;;10.50;94.50;;;;;;5009228;28;20476;-72
2022/03/25 08:30:36;;;;;;;48.90;29.00;;;10.70;94.90;;;;;;5004679;28;21158;-72
2022/03/25 08:33:23;;;;;;;51.03;30.30;;;10.80;94.50;;;;;;5017552;28;20410;-72
2022/03/25 08:36:09;;;;;;;51.73;29.40;;;10.90;92.70;;;;;;5002815;28;21338;-72
2022/03/25 08:38:54;;;;;;;49.13;31.00;;;11.10;92.70;;;;;;5012526;28;20954;-71
2022/03/25 08:41:40;;;;;;;49.73;28.40;;;11.30;90.50;;;;;;5005589;28;20452;-71
2022/03/25 08:44:27;;;;;;;44.20;27.20;;;11.40;90.00;;;;;;5005382;28;20935;-71
2022/03/25 08:47:13;;;;;;;45.53;27.73;;;11.60;90.10;;;;;;5012217;28;20839;-71
2022/03/25 08:49:58;;;;;;;53.80;32.20;;;11.80;84.00;;;;;;5011261;28;20419;-71
2022/03/25 08:52:45;;;;;;;48.20;30.70;;;11.90;81.10;;;;;;5017276;28;20498;-71
2022/03/25 08:55:31;;;;;;;45.27;29.73;;;12.10;77.50;;;;;;5016130;28;20764;-72
2022/03/25 08:58:17;;;;;;;54.80;31.03;;;12.20;77.60;;;;;;5021057;28;20463;-71
2022/03/25 09:01:04;;;;;;;45.13;28.60;;;12.30;74.20;;;;;;5020943;28;20752;-72
2022/03/25 09:03:50;;;;;;;47.57;30.73;;;12.50;69.50;;;;;;5010506;28;20420;-72
2022/03/25 09:06:35;;;;;;;47.47;29.73;;;12.70;67.90;;;;;;5017586;28;20698;-71
2022/03/25 09:09:21;;;;;;;49.20;30.17;;;12.90;68.80;;;;;;5020965;28;20421;-71
2022/03/25 09:12:08;;;;;;;52.13;30.67;;;13.10;61.60;;;;;;5013794;28;20425;-72
2022/03/25 09:14:54;;;;;;;49.10;29.33;;;13.30;62.20;;;;;;5012712;28;20520;-72
2022/03/25 09:17:42;;;;;;;48.00;29.53;;;13.40;59.50;;;;;;5015489;28;20524;-71
2022/03/25 09:20:27;;;;;;;44.20;29.60;;;13.60;53.60;;;;;;5010795;28;20480;-71
2022/03/25 09:23:13;;;;;;;46.97;30.37;;;13.80;51.00;;;;;;5016947;28;20556;-71
2022/03/25 09:26:00;;;;;;;47.43;30.07;;;13.90;51.30;;;;;;5007984;28;20434;-72
2022/03/25 09:28:46;;;;;;;48.23;29.53;;;14.10;51.40;;;;;;5008517;28;20515;-72
2022/03/25 09:31:32;;;;;;;48.93;30.60;;;14.40;49.30;;;;;;5008469;28;20809;-72
2022/03/25 09:37:22;;;;;;;49.37;30.97;;;14.60;47.50;;;;;;5012784;28;20535;-72
2022/03/25 09:40:10;;;;;;;55.20;29.83;;;14.80;45.70;;;;;;5008285;28;20449;-73
2022/03/25 09:42:58;;;;;;;50.23;29.80;;;14.90;41.90;;;;;;5009729;28;20810;-72
2022/03/25 09:45:43;;;;;;;44.10;28.83;;;15.10;41.00;;;;;;5006600;28;20642;-72
2022/03/25 09:48:29;;;;;;;44.20;29.93;;;15.20;41.40;;;;;;5008014;28;20967;-72
2022/03/25 09:51:16;;;;;;;44.40;28.73;;;15.30;40.60;;;;;;5013632;28;20436;-72
2022/03/25 09:54:01;;;;;;;43.77;28.17;;;15.50;41.30;;;;;;5013100;28;20528;-72
2022/03/25 09:56:48;;;;;;;43.20;29.47;;;15.60;41.80;;;;;;5014351;28;20612;-72
2022/03/25 09:59:33;;;;;;;46.57;30.73;;;15.80;42.90;;;;;;5008133;28;20449;-72
2022/03/25 10:02:19;;;;;;;52.13;31.17;;;15.90;39.10;;;;;;5010304;28;20449;-72
2022/03/25 10:05:15;;;;;;;57.30;32.10;;;16.00;37.30;;;;;;5010376;28;20477;-72
2022/03/25 10:08:04;;;;;;;51.27;31.10;;;16.10;35.40;;;;;;5007808;28;20834;-72
2022/03/25 10:10:50;;;;;;;44.37;30.30;;;16.20;35.50;;;;;;5012859;28;20458;-72
2022/03/25 10:13:35;;;;;;;50.40;30.57;;;16.30;36.20;;;;;;5007255;28;20977;-72
2022/03/25 10:16:29;;;;;;;46.60;30.60;;;16.40;38.20;;;;;;5007594;28;20481;-72
2022/03/25 10:19:17;;;;;;;46.07;30.90;;;16.50;36.30;;;;;;5007090;28;20548;-72
2022/03/25 10:22:05;;;;;;;44.03;31.10;;;16.60;35.90;;;;;;5007682;28;20454;-72
2022/03/25 10:24:53;;;;;;;47.57;31.33;;;16.70;34.50;;;;;;5003026;28;20449;-72
2022/03/25 10:27:39;;;;;;;44.13;30.20;;;16.90;36.30;;;;;;5011390;28;20496;-72
2022/03/25 10:30:36;;;;;;;48.17;30.77;;;17.00;35.90;;;;;;5003634;28;20468;-73
2022/03/25 10:33:25;;;;;;;44.83;30.10;;;17.10;34.30;;;;;;5010171;28;20465;-72
2022/03/25 10:36:12;;;;;;;46.37;30.10;;;17.20;34.80;;;;;;5003723;28;20448;-72
2022/03/25 10:39:01;;;;;;;47.30;31.93;;;17.10;31.40;;;;;;5006946;28;20452;-73
2022/03/25 10:41:50;;;;;;;46.03;30.83;;;17.10;34.70;;;;;;5009111;28;20453;-72
2022/03/25 10:44:38;;;;;;;48.90;31.27;;;17.30;33.50;;;;;;5004225;28;20449;-72
2022/03/25 10:47:26;;;;;;;48.57;33.10;;;17.50;36.90;;;;;;5011962;28;21061;-72
2022/03/25 10:50:13;;;;;;;46.67;31.70;;;17.60;37.00;;;;;;5009786;28;20445;-72
2022/03/25 10:53:11;;;;;;;47.40;29.03;;;17.70;37.10;;;;;;5009368;28;20509;-72
2022/03/25 10:55:57;;;;;;;48.70;30.17;;;17.80;37.20;;;;;;5006740;28;20421;-72
2022/03/25 10:58:53;;;;;;;49.37;32.93;;;18.00;34.40;;;;;;5013697;28;20461;-72
2022/03/25 11:01:39;;;;;;;48.13;33.63;;;18.20;34.50;;;;;;5011726;28;20561;-72
2022/03/25 11:04:26;;;;;;;52.33;35.60;;;18.10;37.00;;;;;;5009352;28;20520;-72
2022/03/25 11:07:13;;;;;;;53.10;35.10;;;18.20;37.70;;;;;;4997380;28;20561;-72
2022/03/25 11:10:00;;;;;;;53.20;33.50;;;18.10;35.90;;;;;;5002501;28;20937;-72
2022/03/25 11:12:48;;;;;;;49.57;31.20;;;18.20;34.90;;;;;;5005550;28;20525;-72
2022/03/25 11:15:36;;;;;;;48.70;31.50;;;18.40;35.60;;;;;;5007510;28;20454;-72
2022/03/25 11:18:22;;;;;;;44.10;30.70;;;18.50;36.20;;;;;;5004959;28;20441;-72
2022/03/25 11:21:10;;;;;;;42.77;29.03;;;18.70;31.50;;;;;;5005945;28;20436;-72
2022/03/25 11:23:58;;;;;;;47.33;30.87;;;18.90;30.60;;;;;;5004466;28;20449;-72
2022/03/25 11:26:48;;;;;;;43.40;28.50;;;19.10;29.20;;;;;;5006037;28;20527;-73
2022/03/25 11:29:35;;;;;;;41.20;28.23;;;19.30;29.40;;;;;;5010204;28;20457;-72
2022/03/25 11:32:22;;;;;;;43.87;26.90;;;19.40;28.40;;;;;;5008616;28;20677;-72
2022/03/25 11:35:19;;;;;;;43.07;28.57;;;19.50;28.00;;;;;;5005788;28;20845;-72
2022/03/25 11:38:18;;;;;;;39.67;28.20;;;19.50;27.60;;;;;;5008944;28;20583;-72
2022/03/25 11:41:21;;;;;;;46.20;30.00;;;19.60;27.40;;;;;;5005903;28;20441;-72
2022/03/25 11:44:29;;;;;;;40.53;27.77;;;19.70;26.30;;;;;;5006024;28;20449;-72
2022/03/25 11:47:18;;;;;;;40.97;28.60;;;19.70;27.60;;;;;;5007575;28;20547;-72
2022/03/25 11:50:30;;;;;;;41.70;28.77;;;19.80;27.50;;;;;;5012198;28;20453;-73
2022/03/25 11:53:32;;;;;;;39.43;27.80;;;19.90;26.80;;;;;;5007604;28;20875;-72
2022/03/25 11:56:17;;;;;;;43.47;29.40;;;19.90;27.80;;;;;;5013185;28;20673;-72
2022/03/25 11:59:03;;;;;;;38.30;28.50;;;19.90;27.60;;;;;;5011723;28;20504;-73
2022/03/25 12:01:49;;;;;;;39.03;28.87;;;20.00;27.80;;;;;;5010872;28;20448;-72
2022/03/25 12:04:35;;;;;;;37.23;28.47;;;20.20;26.60;;;;;;5007991;28;20470;-73
2022/03/25 12:07:23;;;;;;;41.40;26.50;;;20.10;25.50;;;;;;5014921;28;21452;-73
2022/03/25 12:10:46;;;;;;;44.40;29.70;;;20.20;26.60;;;;;;5020228;28;20433;-72
2022/03/25 12:14:06;;;;;;;39.83;28.17;;;20.40;25.80;;;;;;5010161;28;20471;-73
2022/03/25 12:17:03;;;;;;;36.73;27.63;;;20.30;25.20;;;;;;5011311;28;20445;-73
2022/03/25 12:19:55;;;;;;;37.33;26.63;;;20.30;25.80;;;;;;5014551;28;20461;-72
2022/03/25 12:22:43;;;;;;;36.40;28.20;;;20.30;25.90;;;;;;5018708;28;20464;-72
2022/03/25 12:25:29;;;;;;;37.60;28.53;;;20.40;25.90;;;;;;5011230;28;20977;-72
2022/03/25 12:28:14;;;;;;;36.87;27.80;;;20.50;25.70;;;;;;5018206;28;20577;-72
2022/03/25 12:31:03;;;;;;;35.07;26.40;;;20.50;23.80;;;;;;5014437;28;20949;-73
2022/03/25 12:33:53;;;;;;;40.40;26.70;;;20.60;24.10;;;;;;5012318;28;20569;-73
2022/03/25 12:36:43;;;;;;;37.20;26.90;;;20.60;25.20;;;;;;5019270;28;20445;-73
2022/03/25 12:39:30;;;;;;;40.87;29.03;;;20.70;23.70;;;;;;5014038;28;20426;-73
2022/03/25 12:42:16;;;;;;;36.27;27.80;;;20.70;23.60;;;;;;5018684;28;20945;-73
2022/03/25 12:45:01;;;;;;;39.90;27.73;;;20.80;23.70;;;;;;5013284;28;20440;-72
2022/03/25 12:47:48;;;;;;;37.87;28.17;;;20.90;23.60;;;;;;5018092;28;20476;-73
2022/03/25 12:50:34;;;;;;;34.13;26.03;;;21.00;24.10;;;;;;5019742;28;20422;-73
2022/03/25 12:53:24;;;;;;;39.83;28.80;;;21.00;23.60;;;;;;5016792;28;20766;-72
2022/03/25 12:56:13;;;;;;;39.43;26.63;;;21.20;23.80;;;;;;5018869;28;20928;-73
2022/03/25 12:58:59;;;;;;;38.23;27.63;;;21.10;24.20;;;;;;5015573;28;20437;-74
2022/03/25 13:01:46;;;;;;;35.70;26.50;;;21.10;23.60;;;;;;5015941;28;20434;-74
2022/03/25 13:04:32;;;;;;;37.87;26.70;;;21.20;24.00;;;;;;5011749;28;20449;-74
2022/03/25 13:07:17;;;;;;;37.83;26.20;;;21.40;23.30;;;;;;5015710;28;20890;-73
2022/03/25 13:10:04;;;;;;;38.07;27.07;;;21.50;24.10;;;;;;5016746;28;20512;-74
2022/03/25 13:12:52;;;;;;;35.73;26.23;;;21.50;22.70;;;;;;5009212;28;20507;-74
2022/03/25 13:15:39;;;;;;;43.13;28.00;;;21.60;22.80;;;;;;5017128;28;20426;-73
2022/03/25 13:18:24;;;;;;;38.13;26.03;;;21.70;22.80;;;;;;5017860;28;20900;-72
2022/03/25 13:21:11;;;;;;;36.23;26.70;;;21.70;23.10;;;;;;5016668;28;20480;-71
2022/03/25 13:23:56;;;;;;;33.10;25.87;;;21.80;22.40;;;;;;5014434;28;20516;-71
2022/03/25 13:26:42;;;;;;;32.20;26.13;;;21.80;22.70;;;;;;5010143;28;20598;-73
2022/03/25 13:29:29;;;;;;;38.37;30.00;;;21.70;23.50;;;;;;5017314;28;20418;-73
2022/03/25 13:32:33;;;;;;;36.17;25.20;;;21.80;22.80;;;;;;5009987;28;20424;-72
2022/03/25 13:35:19;;;;;;;33.47;25.50;;;21.90;23.30;;;;;;5007074;28;20899;-69
2022/03/25 13:38:08;;;;;;;36.77;27.20;;;21.90;23.90;;;;;;5005069;28;20818;-71
2022/03/25 13:40:56;;;;;;;39.67;27.13;;;21.90;22.70;;;;;;5014593;28;20495;-72
2022/03/25 13:43:44;;;;;;;38.90;27.43;;;22.10;23.90;;;;;;5010516;28;20974;-72
2022/03/25 13:46:31;;;;;;;34.50;27.80;;;22.20;22.60;;;;;;5023186;28;20476;-72
2022/03/25 13:49:17;;;;;;;38.90;27.60;;;22.20;21.40;;;;;;5015966;28;20982;-72
2022/03/25 13:52:07;;;;;;;45.70;27.47;;;22.20;21.40;;;;;;5014495;28;20430;-72
2022/03/25 13:55:13;;;;;;;34.03;27.37;;;22.10;23.00;;;;;;5007814;28;20450;-73
2022/03/25 13:58:00;;;;;;;33.47;25.47;;;22.20;22.00;;;;;;5011466;28;20457;-73
2022/03/25 14:00:52;;;;;;;35.00;26.57;;;22.30;22.30;;;;;;5014102;28;20425;-72
2022/03/25 14:03:40;;;;;;;34.70;26.40;;;22.60;21.50;;;;;;5010949;28;20779;-72
2022/03/25 14:06:33;;;;;;;36.10;25.40;;;22.60;21.10;;;;;;5013798;28;20548;-72
2022/03/25 14:09:29;;;;;;;35.23;24.80;;;22.30;21.00;;;;;;5017155;28;20428;-72
2022/03/25 14:12:18;;;;;;;37.70;26.13;;;22.30;21.20;;;;;;5011955;28;20425;-71
2022/03/25 14:15:06;;;;;;;34.00;24.93;;;22.20;20.30;;;;;;5010462;28;20522;-72
2022/03/25 14:17:52;;;;;;;35.37;26.00;;;22.20;20.20;;;;;;5012983;28;20453;-73
2022/03/25 14:20:39;;;;;;;32.50;25.53;;;22.00;20.90;;;;;;5012153;28;20441;-73
2022/03/25 14:23:25;;;;;;;37.60;26.37;;;22.10;19.90;;;;;;5018231;28;20444;-72
2022/03/25 14:26:11;;;;;;;36.87;27.00;;;22.10;19.50;;;;;;5009803;28;20508;-73